KASE/ASE METAR and TAF weather

Enter ICAO airport designator
Station Type Date Time Source
KASE METAR 2020/09/18 19:53 UTC NOAA

KASE 181953Z VRB03KT 10SM BKN110 23/M04 A3038 RMK AO2 SLP173 T02281044


Station Type Date Time Source
KASE Decoded METAR 2020/09/18 19:53 UTC NOAA

ASPEN-PITKIN COUNTY AIRPORT, CO, United States (KASE) 39-14N 106-52W 2354M
Sep 18, 2020 - 03:53 PM EDT / 2020.09.18 1953 UTC
Wind: Variable at 3 MPH (3 KT):0
Visibility: 10 mile(s):0
Sky conditions: mostly cloudy
Temperature: 73.0 F (22.8 C)
Dew Point: 24.1 F (-4.4 C)
Relative Humidity: 15%
Pressure (altimeter): 30.38 in. Hg (1028 hPa)
ob: KASE 181953Z VRB03KT 10SM BKN110 23/M04 A3038 RMK AO2 SLP173 T02281044
cycle: 20

Station Type Date Time Source
KASE TAF 2020/09/18 18:33 UTC NOAA

TAF KASE 181731Z 1818/1918 32007KT P6SM FEW110 SCT250
FM182000 29011G19KT P6SM SCT120 BKN250
FM190100 26006KT P6SM BKN200
FM190300 18009KT P6SM SCT200
FM191400 18004KT P6SM SCT250

Example: see airport list